Time;durP1;ratioP1;P1;durP2;ratioP2;P2;SDS_P1;SDS_P2;PMS_P1;PMS_P2;Temp;Humidity;BMP_temperature;BMP_pressure;BME280_temperature;BME280_humidity;BME280_pressure;Samples;Min_cycle;Max_cycle;Signal;HPM_P1;HPM_P2
2022/05/08 00:01:03;;;;;;;5.47;2.70;;;;;;;13.30;93.47;99281.53;5090352;28;20113;-61
2022/05/08 00:03:48;;;;;;;6.53;3.10;;;;;;;12.99;95.17;99285.50;5090079;28;20040;-61
2022/05/08 00:06:33;;;;;;;4.40;2.88;;;;;;;12.86;96.26;99288.97;5090308;28;20546;-61
2022/05/08 00:09:18;;;;;;;3.17;2.47;;;;;;;12.83;96.22;99283.94;5093566;28;20047;-61
2022/05/08 00:12:02;;;;;;;4.30;3.30;;;;;;;12.75;96.73;99281.84;5095450;28;20044;-61
2022/05/08 00:14:47;;;;;;;4.95;3.40;;;;;;;12.77;96.55;99276.50;5094279;28;20093;-61
2022/05/08 00:17:34;;;;;;;6.25;3.58;;;;;;;12.85;96.35;99287.31;5114739;28;20043;-61
2022/05/08 00:20:19;;;;;;;4.55;3.28;;;;;;;12.87;95.08;99284.56;5115565;28;20047;-61
2022/05/08 00:23:03;;;;;;;4.70;3.50;;;;;;;12.90;95.13;99277.31;5114428;28;20040;-61
2022/05/08 00:25:48;;;;;;;6.93;3.50;;;;;;;12.89;95.16;99273.00;5115690;28;20390;-60
2022/05/08 00:28:38;;;;;;;5.22;3.55;;;;;;;12.86;94.65;99265.31;5115492;28;20073;-62
2022/05/08 00:31:24;;;;;;;4.45;3.17;;;;;;;13.07;93.28;99259.50;5114585;28;20458;-61
2022/05/08 00:34:09;;;;;;;6.00;3.60;;;;;;;13.14;93.00;99259.88;5115031;28;20036;-61
2022/05/08 00:36:54;;;;;;;4.82;3.30;;;;;;;13.26;91.81;99263.44;5114398;28;20043;-61
2022/05/08 00:39:39;;;;;;;4.57;3.40;;;;;;;13.27;90.89;99263.31;5115092;28;20107;-61
2022/05/08 00:42:23;;;;;;;3.88;2.90;;;;;;;13.24;91.46;99260.91;5114441;28;20059;-60
2022/05/08 00:45:08;;;;;;;4.43;3.30;;;;;;;13.24;90.89;99252.19;5094475;28;20036;-62
2022/05/08 00:47:54;;;;;;;4.18;2.83;;;;;;;13.18;91.27;99256.09;5093946;28;20072;-62
2022/05/08 00:50:38;;;;;;;3.78;2.92;;;;;;;13.17;92.04;99260.50;5078945;28;20467;-62
2022/05/08 00:53:26;;;;;;;4.63;3.35;;;;;;;13.31;92.07;99261.31;5094719;28;20047;-61
2022/05/08 00:56:13;;;;;;;3.72;2.83;;;;;;;13.11;91.87;99262.75;5079649;28;20039;-60
2022/05/08 00:58:58;;;;;;;4.80;3.38;;;;;;;13.05;93.31;99254.38;5094577;28;20086;-62
2022/05/08 01:01:42;;;;;;;5.55;3.28;;;;;;;12.98;93.28;99253.09;5094571;28;20083;-62
2022/05/08 01:04:27;;;;;;;4.43;3.53;;;;;;;12.90;94.00;99258.91;5094340;28;20047;-62
2022/05/08 01:07:12;;;;;;;6.53;3.38;;;;;;;12.93;93.63;99261.31;5094399;28;20039;-61
2022/05/08 01:09:58;;;;;;;5.88;3.53;;;;;;;12.83;94.73;99262.91;5093233;28;20040;-62
2022/05/08 01:12:45;;;;;;;4.90;3.33;;;;;;;12.72;94.93;99266.28;5103815;28;20040;-61
2022/05/08 01:15:39;;;;;;;4.05;3.53;;;;;;;12.76;95.13;99267.75;5093878;28;20048;-62
2022/05/08 01:18:24;;;;;;;4.85;3.70;;;;;;;12.86;95.12;99262.69;5107488;28;20110;-62
2022/05/08 01:21:10;;;;;;;4.68;3.55;;;;;;;12.78;95.39;99262.38;5114310;28;20047;-62
2022/05/08 01:23:54;;;;;;;5.88;3.03;;;;;;;12.67;96.61;99268.41;5113770;28;20035;-61
2022/05/08 01:26:39;;;;;;;5.72;4.07;;;;;;;12.72;95.77;99270.69;5114192;28;20039;-61
2022/05/08 01:29:23;;;;;;;5.82;3.65;;;;;;;12.75;96.31;99266.09;5114728;28;20370;-62
2022/05/08 01:32:08;;;;;;;6.05;3.80;;;;;;;12.77;95.90;99269.44;5120178;28;20039;-62
2022/05/08 01:34:53;;;;;;;5.88;3.50;;;;;;;12.74;95.57;99268.81;5117207;28;20493;-61
2022/05/08 01:37:38;;;;;;;6.32;3.45;;;;;;;12.73;95.79;99267.97;5099075;28;20044;-61
2022/05/08 01:40:22;;;;;;;4.40;3.13;;;;;;;12.73;95.98;99277.66;5114384;28;20539;-61
2022/05/08 01:43:08;;;;;;;5.45;3.63;;;;;;;12.76;95.82;99264.31;5083921;28;20397;-61
2022/05/08 01:45:54;;;;;;;9.50;3.63;;;;;;;13.09;96.29;99264.66;5113149;28;20074;-61
2022/05/08 01:48:39;;;;;;;5.63;3.75;;;;;;;13.61;96.04;99264.50;5113179;28;20044;-61
2022/05/08 01:51:24;;;;;;;4.68;3.38;;;;;;;13.91;93.01;99266.66;5113138;28;20122;-61
2022/05/08 01:54:08;;;;;;;6.45;3.40;;;;;;;13.94;93.58;99264.75;5113337;28;20032;-61
2022/05/08 01:56:53;;;;;;;5.63;3.53;;;;;;;14.08;93.19;99267.19;5114327;28;20036;-62
2022/05/08 01:59:38;;;;;;;4.57;3.20;;;;;;;14.25;92.48;99267.69;5114394;28;20044;-61
2022/05/08 02:02:23;;;;;;;7.05;3.58;;;;;;;14.38;91.60;99263.16;5084654;28;20043;-60
2022/05/08 02:05:08;;;;;;;5.30;3.38;;;;;;;14.48;90.57;99272.97;5114194;28;20428;-62
2022/05/08 02:07:54;;;;;;;6.00;3.03;;;;;;;14.55;91.66;99271.56;5113726;28;20497;-60
2022/05/08 02:10:39;;;;;;;4.35;3.22;;;;;;;14.46;90.77;99267.84;5112907;28;20092;-61
2022/05/08 02:13:23;;;;;;;3.78;2.92;;;;;;;14.41;93.45;99268.19;5114051;28;20051;-62
2022/05/08 02:16:11;;;;;;;4.60;3.40;;;;;;;14.49;90.22;99259.69;5113476;28;20458;-62
2022/05/08 02:18:55;;;;;;;4.63;3.30;;;;;;;14.29;92.20;99274.41;5114118;28;20549;-61
2022/05/08 02:21:40;;;;;;;4.25;3.15;;;;;;;14.38;92.51;99271.06;5114337;28;20044;-61
2022/05/08 02:24:24;;;;;;;4.80;3.22;;;;;;;14.41;92.27;99268.19;5114147;28;20485;-63
2022/05/08 02:27:09;;;;;;;6.80;3.05;;;;;;;14.57;91.54;99276.72;5084325;28;20085;-62
2022/05/08 02:29:57;;;;;;;4.70;3.00;;;;;;;14.52;90.80;99272.66;5112906;28;20048;-63
2022/05/08 02:32:43;;;;;;;4.32;3.50;;;;;;;14.42;91.61;99269.03;5112316;28;20032;-63
2022/05/08 02:35:28;;;;;;;4.35;2.85;;;;;;;14.07;89.18;99267.31;5113467;28;20051;-61
2022/05/08 02:38:13;;;;;;;4.78;2.97;;;;;;;13.74;89.23;99267.88;5083847;28;20085;-61
2022/05/08 02:40:58;;;;;;;4.57;2.75;;;;;;;13.87;90.46;99270.44;5112932;28;20040;-64
2022/05/08 02:43:43;;;;;;;4.32;3.05;;;;;;;14.10;88.70;99267.88;5112976;28;20459;-61
2022/05/08 02:46:28;;;;;;;3.95;2.80;;;;;;;14.58;90.00;99273.97;5099281;28;20031;-61
2022/05/08 02:49:12;;;;;;;4.78;3.05;;;;;;;14.83;88.68;99271.25;5092383;28;20126;-61
2022/05/08 02:51:57;;;;;;;4.70;3.03;;;;;;;14.84;90.17;99270.28;5092420;28;20101;-61
2022/05/08 02:54:42;;;;;;;5.07;3.67;;;;;;;14.90;88.73;99264.53;5084711;28;20043;-62
2022/05/08 03:00:30;;;;;;;4.03;3.22;;;;;;;15.02;86.90;99273.25;5091510;28;20055;-61
2022/05/08 03:03:15;;;;;;;3.40;2.70;;;;;;;14.97;88.21;99270.16;5105835;28;20035;-61
2022/05/08 03:06:00;;;;;;;5.47;3.03;;;;;;;14.96;87.78;99268.47;5091570;28;20090;-60
2022/05/08 03:08:45;;;;;;;4.15;2.85;;;;;;;14.90;88.76;99278.53;5092405;28;20036;-62
2022/05/08 03:11:29;;;;;;;5.18;3.33;;;;;;;14.89;88.37;99278.66;5091294;28;20070;-62
2022/05/08 03:14:15;;;;;;;5.32;2.83;;;;;;;14.87;89.79;99277.94;5092168;28;20063;-62
2022/05/08 03:16:59;;;;;;;5.15;3.08;;;;;;;15.06;87.37;99277.34;5092043;28;20505;-63
2022/05/08 03:19:44;;;;;;;5.15;3.45;;;;;;;15.00;87.00;99283.94;5092438;28;20127;-61
2022/05/08 03:22:28;;;;;;;3.45;2.63;;;;;;;14.85;85.84;99283.34;5095721;28;20047;-61
2022/05/08 03:25:13;;;;;;;4.68;2.95;;;;;;;14.68;88.27;99276.72;5092775;28;20044;-60
2022/05/08 03:27:57;;;;;;;4.30;3.00;;;;;;;14.72;88.82;99277.34;5092504;28;20051;-61
2022/05/08 03:30:43;;;;;;;5.03;2.95;;;;;;;14.59;84.91;99273.00;5096714;28;20336;-62
2022/05/08 03:33:29;;;;;;;4.28;2.97;;;;;;;14.32;87.93;99273.31;5098189;28;20040;-61
2022/05/08 03:36:14;;;;;;;3.72;2.75;;;;;;;14.66;87.84;99273.38;5093795;28;20055;-61
2022/05/08 03:38:58;;;;;;;4.30;3.20;;;;;;;14.79;85.75;99275.88;5095417;28;20051;-62
2022/05/08 03:41:43;;;;;;;4.38;3.20;;;;;;;14.80;85.31;99280.25;5093851;28;20035;-62
2022/05/08 03:44:28;;;;;;;4.32;2.80;;;;;;;15.02;89.30;99279.38;5090423;28;20036;-62
2022/05/08 03:47:12;;;;;;;3.70;2.92;;;;;;;15.07;85.95;99286.94;5091406;28;20467;-61
2022/05/08 03:49:58;;;;;;;4.45;3.03;;;;;;;14.77;85.52;99291.00;5089860;28;20055;-62
2022/05/08 03:52:43;;;;;;;4.25;2.80;;;;;;;14.81;87.13;99291.63;5062157;28;20056;-62
2022/05/08 03:55:28;;;;;;;3.90;2.95;;;;;;;14.76;85.26;99284.88;5075919;28;20059;-61
2022/05/08 03:58:13;;;;;;;3.65;2.83;;;;;;;14.52;83.38;99283.19;5091271;28;20381;-62
2022/05/08 04:00:57;;;;;;;4.60;3.00;;;;;;;14.01;84.23;99287.88;5091579;28;20040;-61
2022/05/08 04:03:42;;;;;;;4.50;2.95;;;;;;;14.37;86.91;99282.56;5090317;28;20071;-62
2022/05/08 04:06:27;;;;;;;4.15;2.95;;;;;;;14.73;88.52;99285.13;5091326;28;20051;-63
2022/05/08 04:09:11;;;;;;;4.72;3.28;;;;;;;15.01;85.76;99292.69;5091449;28;20518;-62
2022/05/08 04:11:56;;;;;;;3.90;2.92;;;;;;;15.06;85.47;99289.69;5091225;28;20040;-61
2022/05/08 04:14:41;;;;;;;3.85;2.92;;;;;;;15.13;83.36;99297.00;5090319;28;20040;-63
2022/05/08 04:17:28;;;;;;;3.40;2.42;;;;;;;15.09;84.23;99295.56;5090849;28;20036;-63
2022/05/08 04:20:13;;;;;;;3.65;2.70;;;;;;;15.18;83.72;99301.91;5090650;28;20059;-64
2022/05/08 04:26:00;;;;;;;4.75;2.88;;;;;;;15.32;85.34;99294.69;5091284;28;20085;-62
2022/05/08 04:28:45;;;;;;;4.10;2.80;;;;;;;15.34;84.03;99295.41;5091453;28;20051;-62
2022/05/08 04:31:30;;;;;;;3.78;2.97;;;;;;;15.36;83.91;99301.38;5091385;28;20040;-62
2022/05/08 04:34:14;;;;;;;3.72;2.78;;;;;;;15.37;83.83;99303.09;5091174;28;20040;-62
2022/05/08 04:36:59;;;;;;;4.28;2.67;;;;;;;15.34;85.31;99295.41;5090852;28;20036;-62
2022/05/08 04:39:44;;;;;;;5.70;2.92;;;;;;;15.34;83.43;99304.16;5075559;28;20040;-62
2022/05/08 04:42:29;;;;;;;4.95;3.10;;;;;;;15.43;85.25;99307.88;5090528;28;20066;-62
2022/05/08 04:45:13;;;;;;;3.60;2.63;;;;;;;15.33;84.82;99312.19;5090837;28;20040;-62
2022/05/08 04:47:58;;;;;;;3.60;2.80;;;;;;;15.41;85.41;99304.50;5089627;28;20471;-62
2022/05/08 04:50:43;;;;;;;3.97;3.13;;;;;;;15.42;84.47;99308.00;5090687;28;20043;-63
2022/05/08 04:53:27;;;;;;;4.38;2.88;;;;;;;15.59;81.96;99309.25;5090189;28;20616;-62
2022/05/08 04:56:12;;;;;;;4.47;3.00;;;;;;;15.51;81.61;99312.53;5094597;28;20062;-64
2022/05/08 04:58:57;;;;;;;3.88;2.67;;;;;;;15.67;82.04;99308.66;5094162;28;20058;-62
2022/05/08 05:01:42;;;;;;;4.43;3.00;;;;;;;15.70;82.69;99308.41;5093727;28;20060;-63
2022/05/08 05:04:27;;;;;;;6.18;2.88;;;;;;;15.52;84.38;99307.13;5091864;28;20071;-61
2022/05/08 05:07:12;;;;;;;4.28;2.83;;;;;;;15.57;83.03;99306.75;5092675;28;20521;-63
2022/05/08 05:09:57;;;;;;;4.40;3.10;;;;;;;15.44;84.36;99306.06;5092701;28;20036;-60
2022/05/08 05:12:42;;;;;;;5.13;3.17;;;;;;;15.36;84.04;99304.88;5090579;28;20036;-63
2022/05/08 05:15:27;;;;;;;4.60;2.75;;;;;;;15.39;85.69;99309.91;5104802;28;20051;-61
2022/05/08 05:18:12;;;;;;;4.72;3.08;;;;;;;15.51;85.39;99307.25;5087633;28;20067;-62
2022/05/08 05:20:57;;;;;;;4.95;3.10;;;;;;;15.51;84.82;99305.44;5091383;28;20028;-61
2022/05/08 05:23:42;;;;;;;6.00;3.03;;;;;;;15.64;85.03;99305.28;5071971;28;20051;-61
2022/05/08 05:26:26;;;;;;;5.78;3.80;;;;;;;15.51;84.21;99316.00;5090523;28;20089;-63
2022/05/08 05:29:12;;;;;;;4.80;3.30;;;;;;;15.49;85.12;99314.44;5086121;28;20032;-62
2022/05/08 05:31:56;;;;;;;4.85;3.35;;;;;;;15.36;87.43;99312.78;5090884;28;20090;-65
2022/05/08 05:34:41;;;;;;;5.38;2.90;;;;;;;15.15;89.26;99317.97;5077776;28;20532;-63
2022/05/08 05:37:26;;;;;;;4.05;2.78;;;;;;;15.60;88.04;99314.41;5078403;28;20035;-61
2022/05/08 05:40:11;;;;;;;5.88;3.08;;;;;;;15.66;87.12;99326.28;5094051;28;20491;-64
2022/05/08 05:42:59;;;;;;;5.65;3.25;;;;;;;15.63;87.95;99323.91;5092801;28;20483;-63
2022/05/08 05:45:44;;;;;;;4.57;3.10;;;;;;;15.74;89.13;99326.50;5093787;28;20479;-60
2022/05/08 05:48:29;;;;;;;8.18;4.13;;;;;;;15.66;89.12;99334.22;5075587;28;20036;-62
2022/05/08 05:51:14;;;;;;;10.10;3.53;;;;;;;15.81;88.64;99337.41;5093036;28;20109;-61
2022/05/08 05:53:58;;;;;;;5.60;3.80;;;;;;;16.17;84.86;99341.63;5097698;28;20036;-65
2022/05/08 05:56:43;;;;;;;6.45;4.13;;;;;;;15.97;85.22;99336.16;5113811;28;20046;-70
2022/05/08 05:59:29;;;;;;;6.88;3.92;;;;;;;16.03;84.22;99334.84;5112456;28;20518;-68
2022/05/08 06:02:13;;;;;;;5.45;4.15;;;;;;;15.87;83.56;99341.34;5112455;28;20101;-69
2022/05/08 06:04:58;;;;;;;7.28;4.18;;;;;;;15.90;85.91;99343.75;5092442;28;20490;-64
2022/05/08 06:07:43;;;;;;;7.53;4.57;;;;;;;15.87;86.65;99346.63;5091004;28;20058;-70
2022/05/08 06:10:28;;;;;;;6.22;4.70;;;;;;;15.93;86.73;99342.66;5105973;28;20102;-67
2022/05/08 06:13:13;;;;;;;7.20;5.00;;;;;;;15.79;87.40;99335.84;5093097;28;20032;-67
2022/05/08 06:15:57;;;;;;;7.28;5.20;;;;;;;15.87;87.70;99342.19;5091331;28;20046;-67
2022/05/08 06:18:44;;;;;;;8.85;4.75;;;;;;;15.89;89.19;99334.16;5101857;28;20043;-68
2022/05/08 06:21:28;;;;;;;8.52;5.45;;;;;;;15.91;88.12;99334.00;5113448;28;20051;-68
2022/05/08 06:24:13;;;;;;;6.95;4.78;;;;;;;15.93;87.55;99334.75;5112976;28;20043;-68
2022/05/08 06:26:58;;;;;;;7.82;5.43;;;;;;;15.95;89.08;99335.44;5111777;27;20097;-63
2022/05/08 06:29:42;;;;;;;9.32;6.30;;;;;;;15.84;88.54;99342.44;5099883;28;20107;-70
2022/05/08 06:32:27;;;;;;;8.90;5.75;;;;;;;15.67;89.28;99341.16;5112353;28;20459;-71
2022/05/08 06:35:12;;;;;;;8.93;6.55;;;;;;;15.33;89.99;99347.34;5097104;28;20044;-68
2022/05/08 06:37:56;;;;;;;8.65;5.72;;;;;;;15.40;92.34;99345.06;5092618;28;20044;-68
2022/05/08 06:40:42;;;;;;;10.63;6.35;;;;;;;15.19;91.96;99350.25;5075514;28;20060;-70
2022/05/08 06:43:26;;;;;;;7.18;5.18;;;;;;;15.53;94.63;99352.84;5072488;28;20464;-72
2022/05/08 06:46:11;;;;;;;10.15;6.47;;;;;;;15.72;89.97;99344.28;5070931;28;20048;-71
2022/05/08 06:48:56;;;;;;;10.10;6.20;;;;;;;15.69;92.80;99351.59;5085509;28;20039;-70
2022/05/08 06:51:43;;;;;;;8.05;5.82;;;;;;;15.85;90.09;99359.97;5072091;28;20052;-70
2022/05/08 06:54:27;;;;;;;10.05;6.80;;;;;;;15.73;88.76;99358.34;5071093;28;20051;-68
2022/05/08 06:57:12;;;;;;;8.98;6.38;;;;;;;15.54;89.68;99364.25;5092829;28;20076;-70
2022/05/08 07:03:07;;;;;;;7.93;5.35;;;;;;;15.15;92.02;99365.47;5090348;28;20043;-72
2022/05/08 07:05:53;;;;;;;8.68;5.65;;;;;;;15.00;93.96;99357.81;5085860;28;20046;-67
2022/05/08 07:08:38;;;;;;;8.23;5.30;;;;;;;15.27;94.10;99363.69;5102842;28;20036;-67
2022/05/08 07:11:23;;;;;;;12.13;4.65;;;;;;;15.39;95.14;99361.88;5092295;28;20075;-67
2022/05/08 07:14:11;;;;;;;8.52;4.95;;;;;;;15.30;90.72;99373.16;5090822;28;20039;-67
2022/05/08 07:16:55;;;;;;;11.77;5.93;;;;;;;15.45;91.27;99377.22;5091443;28;20050;-67
2022/05/08 07:19:42;;;;;;;8.68;4.78;;;;;;;15.64;92.29;99373.09;5091856;28;20047;-47
2022/05/08 07:22:27;;;;;;;8.77;4.57;;;;;;;16.83;88.23;99371.41;5094128;28;20431;-43
2022/05/08 07:25:12;;;;;;;11.27;4.78;;;;;;;17.35;84.38;99376.66;5093678;28;20097;-42
2022/05/08 07:27:59;;;;;;;6.30;4.20;;;;;;;17.63;83.45;99380.53;5092430;28;20032;-42
2022/05/08 07:30:44;;;;;;;8.38;5.35;;;;;;;17.67;80.12;99381.91;5091524;28;20048;-50
2022/05/08 07:33:29;;;;;;;9.02;4.35;;;;;;;18.24;79.65;99380.44;5084422;28;20043;-52
2022/05/08 07:36:13;;;;;;;10.63;4.45;;;;;;;18.57;76.47;99387.13;5094634;28;20044;-55
2022/05/08 07:38:58;;;;;;;8.27;3.80;;;;;;;18.40;76.42;99387.84;5090719;28;20405;-58
2022/05/08 07:41:44;;;;;;;7.22;4.80;;;;;;;17.57;78.13;99395.13;5091791;28;20463;-66
2022/05/08 07:44:29;;;;;;;6.30;4.53;;;;;;;16.92;80.76;99399.75;5098685;28;20039;-66
2022/05/08 07:47:14;;;;;;;6.63;4.60;;;;;;;16.60;83.53;99392.69;5096454;28;20039;-63
2022/05/08 07:49:59;;;;;;;8.23;4.57;;;;;;;16.35;85.28;99397.41;5110799;28;20090;-67
2022/05/08 07:52:44;;;;;;;6.40;4.65;;;;;;;16.17;85.57;99399.78;5111383;28;20486;-65
2022/05/08 07:55:29;;;;;;;8.25;4.65;;;;;;;15.93;87.31;99398.97;5112179;28;20057;-62
2022/05/08 07:58:14;;;;;;;6.57;4.38;;;;;;;15.71;88.71;99405.16;5111690;28;20537;-63
2022/05/08 08:00:59;;;;;;;8.18;4.95;;;;;;;16.30;86.99;99403.09;5102917;28;20032;-65
2022/05/08 08:03:45;;;;;;;8.80;4.93;;;;;;;16.65;85.18;99405.56;5090345;28;20078;-66
2022/05/08 08:06:29;;;;;;;9.13;5.80;;;;;;;16.84;82.16;99405.66;5090350;28;20038;-66
2022/05/08 08:09:14;;;;;;;7.78;5.45;;;;;;;16.64;84.06;99412.66;5090369;28;20483;-66
2022/05/08 08:11:59;;;;;;;9.52;6.28;;;;;;;16.77;82.43;99417.75;5091402;28;20059;-66
2022/05/08 08:14:44;;;;;;;7.63;5.38;;;;;;;16.30;86.54;99418.94;5091520;28;20475;-67
2022/05/08 08:17:29;;;;;;;10.85;6.53;;;;;;;16.80;84.36;99421.94;5091525;28;20040;-64
2022/05/08 08:20:14;;;;;;;9.38;6.22;;;;;;;16.42;83.88;99424.19;5099528;28;20032;-62
2022/05/08 08:23:00;;;;;;;9.38;5.78;;;;;;;15.97;86.19;99425.97;5110308;28;20045;-65
2022/05/08 08:25:45;;;;;;;8.15;5.85;;;;;;;15.96;87.44;99430.41;5110612;28;20035;-62
2022/05/08 08:28:29;;;;;;;9.90;5.95;;;;;;;16.24;85.91;99430.00;5111505;28;20062;-65
2022/05/08 08:31:14;;;;;;;9.07;6.20;;;;;;;16.85;83.72;99432.97;5114537;28;20062;-64
2022/05/08 08:33:59;;;;;;;9.52;6.07;;;;;;;16.23;85.18;99430.97;5114927;28;20047;-64
2022/05/08 08:36:43;;;;;;;9.18;6.18;;;;;;;16.50;87.69;99430.50;5084622;28;20490;-56
2022/05/08 08:39:28;;;;;;;8.63;3.92;;;;;;;17.58;83.32;99442.69;5094881;28;20036;-58
2022/05/08 08:42:34;;;;;;;8.55;5.80;;;;;;;17.82;78.32;99435.38;5095588;28;20124;-64
2022/05/08 08:48:30;;;;;;;8.10;5.82;;;;;;;17.54;79.37;99438.63;5110062;28;20051;-63
2022/05/08 08:51:14;;;;;;;8.07;6.00;;;;;;;17.38;80.02;99433.84;5092281;28;20051;-64
2022/05/08 08:53:59;;;;;;;8.07;5.38;;;;;;;16.98;81.68;99440.69;5093715;28;20040;-64
2022/05/08 08:56:46;;;;;;;8.90;6.22;;;;;;;17.26;81.21;99443.66;5093469;28;20040;-68
2022/05/08 08:59:30;;;;;;;11.32;6.53;;;;;;;17.23;80.14;99439.47;5097145;28;20036;-67
2022/05/08 09:02:17;;;;;;;8.80;6.28;;;;;;;17.64;79.56;99440.47;5094614;28;20403;-67
2022/05/08 09:05:04;;;;;;;14.15;7.25;;;;;;;17.79;78.76;99446.22;5090661;28;20410;-70
2022/05/08 09:07:52;;;;;;;10.82;7.53;;;;;;;17.73;78.17;99439.66;5097419;28;20054;-70
2022/05/08 09:10:44;;;;;;;12.07;6.13;;;;;;;17.71;78.70;99438.94;5099464;28;20047;-68
2022/05/08 09:13:30;;;;;;;10.68;4.70;;;;;;;18.32;76.93;99445.09;5095962;28;20044;-59
2022/05/08 09:16:15;;;;;;;15.70;8.70;;;;;;;17.69;78.27;99440.91;5083592;28;20043;-64
2022/05/08 09:19:00;;;;;;;13.82;8.40;;;;;;;17.57;79.57;99434.88;5091074;28;20063;-63
2022/05/08 09:21:54;;;;;;;15.10;8.98;;;;;;;17.54;78.85;99443.94;5093069;28;20032;-62
2022/05/08 09:24:52;;;;;;;8.00;4.47;;;;;;;18.31;78.25;99435.44;5074831;28;20102;-63
2022/05/08 09:27:36;;;;;;;9.65;6.07;;;;;;;18.76;73.94;99429.69;5072296;28;20067;-61
2022/05/08 09:30:21;;;;;;;13.18;7.82;;;;;;;18.82;72.66;99429.94;5083803;28;20477;-61
2022/05/08 09:33:41;;;;;;;9.73;5.93;;;;;;;19.08;72.72;99426.66;5073588;28;20041;-63
2022/05/08 09:36:27;;;;;;;9.13;5.55;;;;;;;19.00;73.10;99426.56;5078399;28;20048;-62
2022/05/08 09:39:18;;;;;;;11.68;7.68;;;;;;;19.68;70.94;99432.59;5092133;28;20090;-66
2022/05/08 09:42:04;;;;;;;16.17;10.43;;;;;;;19.10;72.47;99431.03;5094957;28;20209;-67
2022/05/08 09:45:07;;;;;;;9.88;6.70;;;;;;;17.91;74.13;99437.19;5107619;28;20051;-60
2022/05/08 09:47:57;;;;;;;12.10;6.45;;;;;;;17.90;74.66;99434.69;5107401;28;20040;-60
2022/05/08 09:50:42;;;;;;;11.15;6.55;;;;;;;17.98;77.19;99429.53;5092641;28;20044;-65
2022/05/08 09:53:28;;;;;;;11.43;7.20;;;;;;;18.77;72.92;99426.06;5092554;28;20525;-64
2022/05/08 09:56:13;;;;;;;11.07;6.03;;;;;;;18.51;72.47;99426.66;5093673;28;20491;-64
2022/05/08 09:58:59;;;;;;;11.95;6.53;;;;;;;18.89;71.76;99421.41;5093320;28;20510;-65
2022/05/08 10:01:43;;;;;;;10.88;7.07;;;;;;;19.04;72.41;99414.69;5093642;28;20044;-64
2022/05/08 10:04:34;;;;;;;12.57;7.82;;;;;;;19.14;71.36;99416.50;5092886;28;20072;-66
2022/05/08 10:07:21;;;;;;;10.05;6.43;;;;;;;19.65;68.17;99416.13;5092266;28;20429;-64
2022/05/08 10:16:57;;;;;;;10.68;7.55;;;;;;;19.82;67.29;99417.97;5093561;28;20048;-63
2022/05/08 10:19:46;;;;;;;11.40;7.25;;;;;;;19.56;67.32;99418.69;5092433;28;20360;-62
2022/05/08 10:22:48;;;;;;;12.73;7.22;;;;;;;19.41;70.16;99414.84;5074800;28;20116;-65
2022/05/08 10:25:33;;;;;;;11.27;7.70;;;;;;;19.39;68.14;99411.50;5072941;28;20041;-64
2022/05/08 10:28:19;;;;;;;16.35;7.15;;;;;;;20.58;65.61;99413.38;5072546;28;20040;-60
2022/05/08 10:31:41;;;;;;;13.52;7.53;;;;;;;21.08;64.47;99411.03;5078066;28;20093;-60
2022/05/08 10:34:34;;;;;;;18.38;9.10;;;;;;;20.65;66.23;99403.75;5088210;28;20051;-58
2022/05/08 10:37:26;;;;;;;9.68;6.72;;;;;;;21.00;64.41;99406.50;5075222;28;20051;-60
2022/05/08 10:40:22;;;;;;;11.85;7.75;;;;;;;20.93;64.67;99411.63;5080612;28;20111;-60
2022/05/08 10:43:10;;;;;;;13.13;6.95;;;;;;;21.39;63.57;99414.03;5092735;28;20044;-59
2022/05/08 10:45:55;;;;;;;14.18;8.63;;;;;;;21.47;61.52;99413.22;5071268;28;20115;-61
2022/05/08 10:48:41;;;;;;;11.25;7.15;;;;;;;22.15;60.79;99407.91;5071131;28;20044;-61
2022/05/08 10:51:26;;;;;;;13.40;8.00;;;;;;;22.19;60.56;99408.44;5072516;28;20549;-59
2022/05/08 10:54:12;;;;;;;12.82;8.38;;;;;;;21.94;60.95;99411.03;5090708;28;20042;-65
2022/05/08 10:56:56;;;;;;;12.10;7.97;;;;;;;22.66;58.46;99402.59;5105322;28;20394;-65
2022/05/08 10:59:45;;;;;;;13.52;8.90;;;;;;;23.29;57.29;99399.28;5092412;28;20098;-58
2022/05/08 11:02:42;;;;;;;12.07;8.10;;;;;;;24.21;52.52;99400.47;5105266;28;20111;-61
2022/05/08 11:05:38;;;;;;;11.13;7.25;;;;;;;23.83;51.74;99411.88;5091043;28;20060;-71
2022/05/08 11:08:31;;;;;;;12.52;6.93;;;;;;;24.54;50.20;99398.50;5095703;28;20043;-71
2022/05/08 11:11:17;;;;;;;10.50;6.88;;;;;;;24.60;49.48;99395.09;5090713;28;20062;-65
2022/05/08 11:14:01;;;;;;;13.20;7.00;;;;;;;23.97;51.01;99398.78;5090355;28;20047;-70
2022/05/08 11:16:49;;;;;;;11.80;7.10;;;;;;;24.46;50.47;99392.22;5090839;28;20382;-68
2022/05/08 11:19:51;;;;;;;9.82;6.78;;;;;;;24.03;50.99;99399.88;5089691;28;20044;-65
2022/05/08 11:22:37;;;;;;;11.27;6.82;;;;;;;24.34;50.08;99396.34;5079254;28;20051;-63
2022/05/08 11:25:22;;;;;;;12.60;7.72;;;;;;;23.81;51.89;99397.03;5089349;28;20040;-59
2022/05/08 11:28:15;;;;;;;9.90;5.97;;;;;;;24.17;49.33;99398.31;5090264;28;20040;-67
2022/05/08 11:31:12;;;;;;;12.05;5.50;;;;;;;24.42;48.58;99390.91;5092678;28;20114;-63
2022/05/08 11:37:02;;;;;;;10.80;6.40;;;;;;;23.97;50.28;99388.06;5091077;28;20051;-66
2022/05/08 11:39:47;;;;;;;8.85;6.00;;;;;;;24.36;48.75;99380.94;5091607;28;20047;-60
2022/05/08 11:42:38;;;;;;;14.98;7.70;;;;;;;24.48;48.63;99381.34;5090530;28;20036;-61
2022/05/08 11:45:22;;;;;;;7.57;5.15;;;;;;;23.88;49.06;99373.91;5091336;28;20052;-61
2022/05/08 11:48:07;;;;;;;7.03;4.93;;;;;;;24.65;47.36;99378.47;5090287;28;20398;-60
2022/05/08 11:50:53;;;;;;;7.22;5.22;;;;;;;25.41;45.12;99379.34;5105497;28;20082;-63
2022/05/08 11:53:58;;;;;;;8.20;4.88;;;;;;;25.32;44.47;99373.25;5092126;28;20043;-62
2022/05/08 11:56:43;;;;;;;8.25;5.55;;;;;;;25.12;46.28;99373.81;5092806;28;20036;-63
2022/05/08 11:59:35;;;;;;;6.30;4.97;;;;;;;25.75;44.62;99377.91;5087948;28;20155;-61
2022/05/08 12:02:44;;;;;;;7.22;5.22;;;;;;;25.50;43.76;99370.16;5092002;28;20039;-60
2022/05/08 12:05:31;;;;;;;9.35;5.25;;;;;;;25.55;45.02;99369.59;5095867;28;20040;-60
2022/05/08 12:08:23;;;;;;;7.97;4.43;;;;;;;25.66;42.80;99371.81;5094336;28;20093;-60
2022/05/08 12:11:33;;;;;;;8.73;5.25;;;;;;;25.66;44.14;99369.13;5079533;28;20055;-61
2022/05/08 12:14:29;;;;;;;8.63;5.60;;;;;;;25.76;44.18;99376.03;5094740;28;20051;-67
2022/05/08 12:17:14;;;;;;;10.30;5.72;;;;;;;25.33;45.67;99373.06;5094878;28;20420;-62
2022/05/08 12:19:59;;;;;;;8.82;5.53;;;;;;;25.16;45.77;99367.09;5096212;28;20388;-61
2022/05/08 12:22:46;;;;;;;8.90;5.57;;;;;;;25.29;46.21;99368.25;5109889;28;20173;-61
2022/05/08 12:25:37;;;;;;;8.73;5.38;;;;;;;25.39;45.18;99371.50;5088094;28;20048;-61
2022/05/08 12:28:22;;;;;;;8.80;5.88;;;;;;;24.54;47.68;99351.16;5074735;28;20064;-57
2022/05/08 12:31:09;;;;;;;8.68;6.32;;;;;;;24.23;48.75;99363.66;5075859;28;20467;-61
2022/05/08 12:33:54;;;;;;;9.02;6.30;;;;;;;23.14;51.25;99357.25;5075423;28;20068;-61
2022/05/08 12:36:40;;;;;;;8.93;6.00;;;;;;;23.75;50.98;99359.28;5075666;28;20422;-60
2022/05/08 12:39:25;;;;;;;8.98;6.28;;;;;;;23.94;50.01;99348.31;5075356;28;20033;-65
2022/05/08 12:42:11;;;;;;;8.10;5.90;;;;;;;23.34;49.49;99343.47;5076866;28;20040;-64
2022/05/08 12:44:56;;;;;;;8.05;4.90;;;;;;;23.54;49.96;99337.69;5107818;28;20028;-63
2022/05/08 12:47:41;;;;;;;6.65;5.15;;;;;;;24.01;47.82;99340.41;5095778;28;20040;-61
2022/05/08 12:50:25;;;;;;;8.07;5.05;;;;;;;24.21;47.79;99336.22;5095691;28;20526;-62
2022/05/08 12:53:10;;;;;;;6.38;4.47;;;;;;;24.20;45.79;99334.59;5094883;28;20039;-61
2022/05/08 12:55:54;;;;;;;11.52;5.90;;;;;;;23.64;48.27;99340.97;5092618;28;20058;-62
2022/05/08 13:01:42;;;;;;;8.65;5.78;;;;;;;25.03;45.84;99332.06;5093490;28;20039;-62
2022/05/08 13:04:27;;;;;;;8.07;6.18;;;;;;;24.73;46.49;99331.03;5093533;28;20032;-62
2022/05/08 13:07:13;;;;;;;11.25;6.50;;;;;;;24.63;47.00;99327.78;5093511;28;20463;-62
2022/05/08 13:09:57;;;;;;;7.28;5.07;;;;;;;25.26;46.29;99333.78;5094569;28;20040;-61
2022/05/08 13:12:42;;;;;;;10.98;6.68;;;;;;;24.71;46.77;99327.69;5095429;28;20044;-62
2022/05/08 13:15:26;;;;;;;9.13;6.03;;;;;;;24.03;48.17;99324.97;5093906;28;20040;-63
2022/05/08 13:18:11;;;;;;;10.85;6.20;;;;;;;24.17;48.65;99315.38;5094960;28;20111;-62
2022/05/08 13:20:56;;;;;;;10.23;6.05;;;;;;;24.69;47.72;99312.84;5094360;28;20052;-62
2022/05/08 13:23:40;;;;;;;11.10;7.40;;;;;;;24.79;48.92;99312.56;5094286;28;20036;-62
2022/05/08 13:26:26;;;;;;;9.02;6.43;;;;;;;25.48;46.16;99309.72;5080094;28;20044;-64